createdAt,value
2017-12-26T00:02:07.777Z,98047.16
2017-12-26T00:04:40.124Z,98047.26
2017-12-26T00:07:12.798Z,98043.42
2017-12-26T00:09:43.389Z,98045.20
2017-12-26T00:12:16.692Z,98036.14
2017-12-26T00:14:50.923Z,98033.84
2017-12-26T00:17:21.205Z,98040.65
2017-12-26T00:19:51.577Z,98039.48
2017-12-26T00:22:23.586Z,98036.10
2017-12-26T00:24:56.898Z,98032.83
2017-12-26T00:27:27.616Z,98026.16
2017-12-26T00:29:58.488Z,98017.83
2017-12-26T00:32:28.553Z,98026.37
2017-12-26T00:35:02.443Z,98017.52
2017-12-26T00:37:37.808Z,98003.26
2017-12-26T00:40:15.305Z,98007.20
2017-12-26T00:42:49.443Z,98006.91
2017-12-26T00:45:24.909Z,97995.73
2017-12-26T00:47:56.671Z,97998.28
2017-12-26T00:50:31.101Z,98000.66
2017-12-26T00:58:28.850Z,97990.84
2017-12-26T01:04:03.711Z,97993.91
2017-12-26T01:06:33.745Z,97994.55
2017-12-26T01:09:03.528Z,98001.02
2017-12-26T01:11:33.634Z,98000.64
2017-12-26T01:14:05.102Z,98006.06
2017-12-26T01:16:36.812Z,98001.88
2017-12-26T01:19:09.588Z,98003.64
2017-12-26T01:21:39.932Z,97997.78
2017-12-26T01:24:12.860Z,97997.10
2017-12-26T01:26:46.965Z,97991.06
2017-12-26T01:29:19.194Z,97995.42
2017-12-26T01:31:50.323Z,97989.63
2017-12-26T01:34:24.610Z,97981.45
2017-12-26T01:37:03.807Z,97974.93
2017-12-26T01:39:34.094Z,97992.77
2017-12-26T01:42:04.054Z,97986.96
2017-12-26T01:44:34.259Z,97974.59
2017-12-26T01:47:05.493Z,97970.78
2017-12-26T01:49:35.478Z,97972.52
2017-12-26T01:52:11.346Z,97972.94
2017-12-26T01:54:46.420Z,97973.25
2017-12-26T01:57:17.316Z,97963.65
2017-12-26T01:59:48.425Z,97965.91
2017-12-26T02:02:19.643Z,97966.48
2017-12-26T02:04:49.605Z,97954.70
2017-12-26T02:07:20.941Z,97959.64
2017-12-26T02:09:51.913Z,97951.66
2017-12-26T02:12:23.392Z,97946.07
2017-12-26T02:14:57.448Z,97948.64
2017-12-26T02:17:33.044Z,97940.98
2017-12-26T02:20:06.172Z,97934.56
2017-12-26T02:22:41.587Z,97938.02
2017-12-26T02:25:12.714Z,97927.53
2017-12-26T02:27:47.671Z,97925.16
2017-12-26T02:30:18.151Z,97922.25
2017-12-26T02:32:51.471Z,97912.77
2017-12-26T02:35:24.458Z,97912.34
2017-12-26T02:37:54.620Z,97909.46
2017-12-26T02:40:27.927Z,97904.50
2017-12-26T02:42:57.970Z,97890.06
2017-12-26T02:45:27.807Z,97890.47
2017-12-26T02:47:57.870Z,97886.86
2017-12-26T02:50:29.156Z,97880.42
2017-12-26T02:53:00.907Z,97879.14
2017-12-26T02:55:39.313Z,97871.45
2017-12-26T02:58:11.011Z,97876.67
2017-12-26T03:00:42.261Z,97863.39
2017-12-26T03:03:13.969Z,97860.36
2017-12-26T03:05:43.760Z,97857.97
2017-12-26T03:08:13.697Z,97844.48
2017-12-26T03:10:46.091Z,97847.36
2017-12-26T03:13:16.090Z,97846.28
2017-12-26T03:15:46.052Z,97843.87
2017-12-26T03:18:16.577Z,97836.31
2017-12-26T03:20:46.196Z,97835.44
2017-12-26T03:23:15.872Z,97825.41
2017-12-26T03:25:46.328Z,97817.73
2017-12-26T03:28:16.046Z,97814.48
2017-12-26T03:30:47.006Z,97811.23
2017-12-26T03:33:17.062Z,97796.03
2017-12-26T03:35:47.607Z,97801.59
2017-12-26T03:38:17.188Z,97795.28
2017-12-26T03:40:47.137Z,97798.21
2017-12-26T03:43:18.932Z,97785.91
2017-12-26T03:45:49.427Z,97782.39
2017-12-26T03:48:19.949Z,97775.59
2017-12-26T03:50:50.276Z,97770.05
2017-12-26T03:53:20.493Z,97758.70
2017-12-26T03:55:50.770Z,97754.28
2017-12-26T03:58:20.551Z,97749.45
2017-12-26T04:00:50.843Z,97745.77
2017-12-26T04:03:20.780Z,97738.50
2017-12-26T04:05:50.441Z,97739.59
2017-12-26T04:08:20.146Z,97734.53
2017-12-26T04:10:53.120Z,97727.38
2017-12-26T04:13:23.479Z,97722.11
2017-12-26T04:15:53.744Z,97722.18
2017-12-26T04:18:25.347Z,97718.83
2017-12-26T04:20:55.440Z,97715.53
2017-12-26T04:23:25.762Z,97710.17
2017-12-26T04:25:55.825Z,97707.06
2017-12-26T04:28:26.703Z,97712.68
2017-12-26T04:30:56.668Z,97710.46
2017-12-26T04:33:26.863Z,97706.45
2017-12-26T04:35:56.903Z,97705.27
2017-12-26T04:38:27.535Z,97702.66
2017-12-26T04:40:58.171Z,97704.73
2017-12-26T04:43:28.300Z,97693.53
2017-12-26T04:45:58.204Z,97691.36
2017-12-26T04:48:28.577Z,97693.09
2017-12-26T04:50:58.764Z,97683.11
2017-12-26T04:53:28.629Z,97676.59
2017-12-26T04:55:59.472Z,97682.07
2017-12-26T04:58:30.380Z,97664.92
2017-12-26T05:01:00.396Z,97673.07
2017-12-26T05:03:30.315Z,97671.09
2017-12-26T05:05:59.918Z,97672.31
2017-12-26T05:08:29.476Z,97660.06
2017-12-26T05:10:59.801Z,97655.08
2017-12-26T05:13:29.753Z,97647.47
2017-12-26T05:15:59.207Z,97645.83
2017-12-26T05:18:29.658Z,97640.61
2017-12-26T05:21:00.531Z,97632.89
2017-12-26T05:23:30.670Z,97632.13
2017-12-26T05:26:02.813Z,97630.40
2017-12-26T05:28:32.679Z,97632.20
2017-12-26T05:31:03.303Z,97625.36
2017-12-26T05:33:33.166Z,97626.02
2017-12-26T05:36:03.862Z,97616.75
2017-12-26T05:38:33.722Z,97615.65
2017-12-26T05:41:04.148Z,97610.51
2017-12-26T05:43:35.020Z,97608.36
2017-12-26T05:46:04.973Z,97602.13
2017-12-26T05:48:38.392Z,97593.41
2017-12-26T05:51:08.365Z,97590.16
2017-12-26T05:53:39.158Z,97587.83
2017-12-26T05:56:08.934Z,97579.57
2017-12-26T05:58:38.972Z,97569.65
2017-12-26T06:01:08.920Z,97567.67
2017-12-26T06:03:38.776Z,97561.53
2017-12-26T06:06:11.978Z,97552.20
2017-12-26T06:08:43.274Z,97548.86
2017-12-26T06:11:14.923Z,97534.94
2017-12-26T06:13:47.663Z,97546.35
2017-12-26T06:16:17.725Z,97541.63
2017-12-26T06:18:50.725Z,97541.56
2017-12-26T06:21:22.391Z,97533.23
2017-12-26T06:23:51.986Z,97536.77
2017-12-26T06:26:23.125Z,97531.33
2017-12-26T06:28:53.382Z,97532.92
2017-12-26T06:31:24.339Z,97540.84
2017-12-26T06:33:58.524Z,97532.48
2017-12-26T06:36:31.073Z,97542.17
2017-12-26T06:39:01.763Z,97518.85
2017-12-26T06:41:34.016Z,97530.97
2017-12-26T06:44:05.198Z,97521.00
2017-12-26T06:46:36.008Z,97511.54
2017-12-26T06:49:08.673Z,97523.71
2017-12-26T06:51:39.497Z,97512.65
2017-12-26T06:54:09.490Z,97521.39
2017-12-26T06:56:39.794Z,97530.24
2017-12-26T06:59:10.632Z,97525.59
2017-12-26T07:01:40.779Z,97523.62
2017-12-26T07:04:10.583Z,97516.26
2017-12-26T07:06:41.316Z,97511.06
2017-12-26T07:09:12.524Z,97514.21
2017-12-26T07:11:42.750Z,97511.34
2017-12-26T07:14:13.290Z,97506.89
2017-12-26T07:16:43.236Z,97510.30
2017-12-26T07:19:15.831Z,97507.63
2017-12-26T07:21:50.653Z,97502.70
2017-12-26T07:24:23.725Z,97498.88
2017-12-26T07:26:54.131Z,97493.44
2017-12-26T07:29:25.235Z,97496.67
2017-12-26T07:31:57.177Z,97489.38
2017-12-26T07:34:28.105Z,97464.87
2017-12-26T07:36:57.997Z,97470.37
2017-12-26T07:39:30.352Z,97466.91
2017-12-26T07:42:01.029Z,97469.71
2017-12-26T07:44:31.737Z,97469.75
2017-12-26T07:47:02.082Z,97453.59
2017-12-26T07:49:32.839Z,97455.49
2017-12-26T07:54:25.534Z,97461.14
2017-12-26T07:56:55.779Z,97455.00
2017-12-26T07:59:26.556Z,97456.21
2017-12-26T08:01:57.796Z,97463.98
2017-12-26T08:04:31.386Z,97462.39
2017-12-26T08:07:04.107Z,97460.88
2017-12-26T08:09:34.879Z,97462.63
2017-12-26T08:12:05.378Z,97460.95
2017-12-26T08:14:39.099Z,97445.96
2017-12-26T08:17:16.987Z,97448.28
2017-12-26T08:19:51.490Z,97445.08
2017-12-26T08:22:23.176Z,97458.62
2017-12-26T08:24:55.955Z,97452.95
2017-12-26T08:27:25.663Z,97449.89
2017-12-26T08:29:57.079Z,97430.91
2017-12-26T08:32:28.932Z,97442.02
2017-12-26T08:34:58.989Z,97441.66
2017-12-26T08:37:29.885Z,97451.65
2017-12-26T08:40:00.023Z,97435.45
2017-12-26T08:42:31.534Z,97434.37
2017-12-26T08:45:02.503Z,97426.63
2017-12-26T08:47:36.272Z,97434.85
2017-12-26T08:50:16.785Z,97432.70
2017-12-26T08:52:47.220Z,97425.87
2017-12-26T08:55:17.865Z,97424.53
2017-12-26T08:57:48.005Z,97416.34
2017-12-26T09:00:18.736Z,97421.21
2017-12-26T09:02:49.055Z,97418.50
2017-12-26T09:05:19.208Z,97421.12
2017-12-26T09:07:52.565Z,97414.94
2017-12-26T09:10:23.072Z,97420.34
2017-12-26T09:13:00.910Z,97421.78
2017-12-26T09:15:32.428Z,97424.27
2017-12-26T09:18:02.817Z,97435.22
2017-12-26T09:20:32.611Z,97440.66
2017-12-26T09:23:05.230Z,97444.44
2017-12-26T09:25:36.603Z,97438.77
2017-12-26T09:28:06.320Z,97442.16
2017-12-26T09:30:37.048Z,97434.06
2017-12-26T09:33:10.750Z,97436.47
2017-12-26T09:35:41.775Z,97431.06
2017-12-26T09:38:11.739Z,97426.98
2017-12-26T09:40:42.185Z,97419.58
2017-12-26T09:43:16.022Z,97407.67
2017-12-26T09:45:47.723Z,97414.77
2017-12-26T09:48:19.362Z,97399.53
2017-12-26T09:50:55.747Z,97391.10
2017-12-26T09:53:28.641Z,97388.79
2017-12-26T09:55:59.508Z,97373.17
2017-12-26T09:58:34.518Z,97364.29
2017-12-26T10:01:05.464Z,97350.59
2017-12-26T10:03:37.944Z,97332.63
2017-12-26T10:06:08.864Z,97342.11
2017-12-26T10:08:39.403Z,97337.79
2017-12-26T10:11:11.879Z,97344.05
2017-12-26T10:13:42.021Z,97340.77
2017-12-26T10:16:17.235Z,97341.03
2017-12-26T10:18:48.259Z,97340.02
2017-12-26T10:21:21.353Z,97341.37
2017-12-26T10:23:52.671Z,97332.75
2017-12-26T10:26:27.126Z,97323.16
2017-12-26T10:29:01.803Z,97323.88
2017-12-26T10:31:32.850Z,97310.33
2017-12-26T10:34:02.899Z,97317.16
2017-12-26T10:36:33.249Z,97314.09
2017-12-26T10:39:05.025Z,97323.48
2017-12-26T10:41:34.923Z,97313.13
2017-12-26T10:44:05.367Z,97318.94
2017-12-26T10:46:35.109Z,97326.42
2017-12-26T10:49:05.032Z,97328.58
2017-12-26T10:51:36.851Z,97324.42
2017-12-26T10:54:08.275Z,97314.80
2017-12-26T10:56:38.827Z,97318.67
2017-12-26T10:59:11.809Z,97313.27
2017-12-26T11:01:42.395Z,97309.05
2017-12-26T11:04:12.266Z,97302.58
2017-12-26T11:06:42.167Z,97286.88
2017-12-26T11:09:13.908Z,97282.16
2017-12-26T11:11:44.909Z,97260.41
2017-12-26T11:14:17.258Z,97263.02
2017-12-26T11:16:49.299Z,97254.38
2017-12-26T11:19:19.521Z,97251.63
2017-12-26T11:21:49.267Z,97241.52
2017-12-26T11:24:19.658Z,97242.59
2017-12-26T11:26:49.937Z,97235.00
2017-12-26T11:29:20.400Z,97234.33
2017-12-26T11:31:50.948Z,97233.97
2017-12-26T11:34:21.378Z,97239.38
2017-12-26T11:36:51.869Z,97233.16
2017-12-26T11:39:23.366Z,97238.32
2017-12-26T11:41:57.006Z,97231.77
2017-12-26T11:44:27.675Z,97230.27
2017-12-26T11:46:58.564Z,97224.06
2017-12-26T11:49:28.889Z,97229.13
2017-12-26T11:51:58.959Z,97212.80
2017-12-26T11:54:30.524Z,97233.74
2017-12-26T11:57:01.098Z,97224.39
2017-12-26T11:59:32.524Z,97211.83
2017-12-26T12:02:04.300Z,97221.08
2017-12-26T12:04:34.597Z,97211.81
2017-12-26T12:07:05.213Z,97210.95
2017-12-26T12:09:35.115Z,97195.63
2017-12-26T12:12:06.312Z,97198.99
2017-12-26T12:14:36.755Z,97195.19
2017-12-26T12:17:08.167Z,97203.63
2017-12-26T12:19:38.392Z,97196.84
2017-12-26T12:22:08.722Z,97196.45
2017-12-26T12:24:38.416Z,97207.29
2017-12-26T12:27:08.254Z,97224.05
2017-12-26T12:29:38.565Z,97213.25
2017-12-26T12:32:08.591Z,97209.61
2017-12-26T12:34:39.361Z,97225.33
2017-12-26T12:37:09.512Z,97220.54
2017-12-26T12:39:39.437Z,97221.61
2017-12-26T12:42:09.342Z,97217.14
2017-12-26T12:44:40.225Z,97222.66
2017-12-26T12:47:10.602Z,97224.27
2017-12-26T12:49:41.272Z,97206.05
2017-12-26T12:52:11.946Z,97215.12
2017-12-26T12:54:43.056Z,97209.49
2017-12-26T12:57:12.915Z,97206.43
2017-12-26T12:59:44.151Z,97208.09
2017-12-26T13:02:15.812Z,97209.53
2017-12-26T13:04:46.873Z,97211.19
2017-12-26T13:07:20.041Z,97225.42
2017-12-26T13:09:50.672Z,97222.77
2017-12-26T13:12:25.270Z,97228.56
2017-12-26T13:14:55.812Z,97250.33
2017-12-26T13:17:26.540Z,97258.59
2017-12-26T13:19:58.888Z,97281.81
2017-12-26T13:22:30.669Z,97293.87
2017-12-26T13:25:00.683Z,97307.31
2017-12-26T13:27:31.616Z,97324.67
2017-12-26T13:30:03.808Z,97316.33
2017-12-26T13:32:34.565Z,97347.38
2017-12-26T13:35:06.062Z,97363.25
2017-12-26T13:37:39.830Z,97367.20
2017-12-26T13:40:11.740Z,97380.11
2017-12-26T13:42:42.646Z,97386.86
2017-12-26T13:45:14.735Z,97390.77
2017-12-26T13:47:46.154Z,97397.34
2017-12-26T13:50:18.153Z,97393.63
2017-12-26T13:52:48.993Z,97395.83
2017-12-26T13:55:20.235Z,97390.38
2017-12-26T13:57:51.651Z,97383.19
2017-12-26T14:00:23.694Z,97385.09
2017-12-26T14:02:56.419Z,97395.31
2017-12-26T14:05:29.014Z,97400.94
2017-12-26T14:08:03.248Z,97415.03
2017-12-26T14:10:34.144Z,97411.55
2017-12-26T14:13:04.172Z,97402.98
2017-12-26T14:15:35.295Z,97392.55
2017-12-26T14:18:08.608Z,97390.33
2017-12-26T14:20:40.853Z,97384.20
2017-12-26T14:23:12.169Z,97382.04
2017-12-26T14:25:47.658Z,97373.88
2017-12-26T14:28:18.740Z,97382.34
2017-12-26T14:30:51.192Z,97389.48
2017-12-26T14:33:23.244Z,97396.56
2017-12-26T14:35:57.826Z,97409.62
2017-12-26T14:38:30.321Z,97405.45
2017-12-26T14:41:00.435Z,97411.84
2017-12-26T14:43:39.922Z,97420.41
2017-12-26T14:46:12.001Z,97432.89
2017-12-26T14:48:44.206Z,97435.66
2017-12-26T14:51:17.929Z,97434.06
2017-12-26T14:53:55.255Z,97435.05
2017-12-26T14:56:27.313Z,97449.16
2017-12-26T14:58:57.663Z,97446.17
2017-12-26T15:01:29.476Z,97437.12
2017-12-26T15:04:00.796Z,97433.86
2017-12-26T15:06:33.973Z,97441.08
2017-12-26T15:09:07.881Z,97443.83
2017-12-26T15:11:40.099Z,97448.67
2017-12-26T15:14:11.905Z,97458.11
2017-12-26T15:16:48.101Z,97463.84
2017-12-26T15:19:19.398Z,97463.77
2017-12-26T15:21:53.432Z,97479.86
2017-12-26T15:24:24.564Z,97485.92
2017-12-26T15:26:57.541Z,97487.78
2017-12-26T15:29:29.702Z,97488.38
2017-12-26T15:32:01.520Z,97489.91
2017-12-26T15:34:33.041Z,97492.17
2017-12-26T15:37:03.924Z,97496.23
2017-12-26T15:39:35.133Z,97499.34
2017-12-26T15:42:05.651Z,97498.36
2017-12-26T15:44:35.841Z,97493.84
2017-12-26T15:47:05.543Z,97495.56
2017-12-26T15:49:36.790Z,97504.27
2017-12-26T15:52:06.960Z,97499.52
2017-12-26T15:54:37.142Z,97506.59
2017-12-26T15:57:08.232Z,97501.50
2017-12-26T15:59:39.149Z,97498.23
2017-12-26T16:02:11.103Z,97502.45
2017-12-26T16:04:42.626Z,97500.25
2017-12-26T16:07:13.408Z,97499.46
2017-12-26T16:09:45.348Z,97501.72
2017-12-26T16:12:16.491Z,97506.33
2017-12-26T16:14:46.383Z,97505.73
2017-12-26T16:17:19.317Z,97508.47
2017-12-26T16:19:50.283Z,97513.95
2017-12-26T16:22:20.735Z,97519.57
2017-12-26T16:24:50.494Z,97522.36
2017-12-26T16:27:20.580Z,97525.52
2017-12-26T16:29:50.330Z,97524.27
2017-12-26T16:32:22.055Z,97530.32
2017-12-26T16:34:52.012Z,97526.31
2017-12-26T16:37:21.733Z,97523.53
2017-12-26T16:39:53.445Z,97529.52
2017-12-26T16:42:24.910Z,97528.71
2017-12-26T16:44:55.271Z,97535.47
2017-12-26T16:47:26.047Z,97536.95
2017-12-26T16:49:56.706Z,97537.96
2017-12-26T16:52:27.032Z,97537.36
2017-12-26T16:54:57.778Z,97530.25
2017-12-26T16:57:28.339Z,97526.37
2017-12-26T16:59:59.947Z,97521.48
2017-12-26T17:05:25.722Z,97523.23
2017-12-26T17:07:56.691Z,97526.97
2017-12-26T17:10:27.200Z,97522.05
2017-12-26T17:12:58.503Z,97512.44
2017-12-26T17:15:29.040Z,97512.27
2017-12-26T17:18:01.592Z,97516.52
2017-12-26T17:20:32.593Z,97508.89
2017-12-26T17:23:03.955Z,97509.45
2017-12-26T17:25:35.194Z,97514.72
2017-12-26T17:28:04.898Z,97508.17
2017-12-26T17:30:34.487Z,97503.61
2017-12-26T17:33:05.379Z,97500.34
2017-12-26T17:35:37.636Z,97502.50
2017-12-26T17:38:09.352Z,97495.63
2017-12-26T17:40:39.219Z,97491.30
2017-12-26T17:43:09.487Z,97492.72
2017-12-26T17:45:40.601Z,97497.27
2017-12-26T17:48:10.806Z,97487.08
2017-12-26T17:50:40.782Z,97490.27
2017-12-26T17:53:11.508Z,97491.24
2017-12-26T17:55:42.084Z,97493.46
2017-12-26T17:58:12.241Z,97482.72
2017-12-26T18:00:42.827Z,97486.25
2017-12-26T18:03:13.702Z,97475.11
2017-12-26T18:05:44.158Z,97468.02
2017-12-26T18:08:14.230Z,97478.31
2017-12-26T18:10:43.953Z,97476.16
2017-12-26T18:13:14.081Z,97480.35
2017-12-26T18:15:44.163Z,97486.84
2017-12-26T18:18:14.333Z,97492.63
2017-12-26T18:21:08.931Z,97497.89
2017-12-26T18:23:40.604Z,97492.92
2017-12-26T18:26:12.013Z,97493.17
2017-12-26T18:31:23.390Z,97485.09
2017-12-26T18:33:58.728Z,97482.31
2017-12-26T18:36:30.523Z,97475.83
2017-12-26T18:39:02.336Z,97477.47
2017-12-26T18:41:34.439Z,97471.99
2017-12-26T18:44:04.232Z,97473.88
2017-12-26T18:46:36.413Z,97471.99
2017-12-26T18:49:06.620Z,97475.53
2017-12-26T18:51:37.975Z,97477.70
2017-12-26T18:54:08.272Z,97481.56
2017-12-26T18:56:39.941Z,97484.42
2017-12-26T18:59:13.970Z,97477.03
2017-12-26T19:01:45.185Z,97473.84
2017-12-26T19:04:17.780Z,97469.50
2017-12-26T19:06:52.595Z,97465.53
2017-12-26T19:09:25.134Z,97455.98
2017-12-26T19:11:56.663Z,97462.53
2017-12-26T19:14:29.836Z,97452.56
2017-12-26T19:17:04.307Z,97449.80
2017-12-26T19:19:36.337Z,97448.48
2017-12-26T19:22:08.406Z,97445.27
2017-12-26T19:24:42.214Z,97436.11
2017-12-26T19:27:17.031Z,97433.93
2017-12-26T19:29:50.516Z,97427.83
2017-12-26T19:32:22.843Z,97427.78
2017-12-26T19:34:53.898Z,97430.73
2017-12-26T19:37:26.308Z,97434.50
2017-12-26T19:39:57.727Z,97421.80
2017-12-26T19:42:29.658Z,97418.24
2017-12-26T19:45:01.191Z,97409.09
2017-12-26T19:47:32.978Z,97410.20
2017-12-26T19:50:08.513Z,97408.83
2017-12-26T19:52:41.193Z,97405.67
2017-12-26T19:55:12.760Z,97411.08
2017-12-26T19:57:49.490Z,97407.06
2017-12-26T20:00:20.748Z,97405.55
2017-12-26T20:02:52.351Z,97401.62
2017-12-26T20:05:23.018Z,97392.15
2017-12-26T20:07:54.846Z,97396.34
2017-12-26T20:10:27.837Z,97395.80
2017-12-26T20:13:01.229Z,97390.53
2017-12-26T20:15:34.541Z,97388.14
2017-12-26T20:18:09.932Z,97384.75
2017-12-26T20:20:46.486Z,97385.10
2017-12-26T20:23:17.668Z,97369.41
2017-12-26T20:25:49.258Z,97369.89
2017-12-26T20:28:25.668Z,97366.11
2017-12-26T20:30:57.290Z,97369.19
2017-12-26T20:33:27.791Z,97358.80
2017-12-26T20:35:59.322Z,97357.55
2017-12-26T20:38:33.711Z,97353.92
2017-12-26T20:41:09.016Z,97347.09
2017-12-26T20:43:44.026Z,97347.27
2017-12-26T20:46:19.033Z,97342.23
2017-12-26T20:48:54.907Z,97337.38
2017-12-26T20:51:27.740Z,97330.80
2017-12-26T20:54:05.777Z,97326.42
2017-12-26T20:56:40.118Z,97328.89
2017-12-26T20:59:15.242Z,97321.39
2017-12-26T21:01:53.252Z,97321.75
2017-12-26T21:04:28.020Z,97312.67
2017-12-26T21:07:08.012Z,97305.23
2017-12-26T21:09:42.062Z,97308.61
2017-12-26T21:12:16.689Z,97304.17
2017-12-26T21:14:51.895Z,97301.99
2017-12-26T21:17:28.830Z,97301.58
2017-12-26T21:20:13.358Z,97296.05
2017-12-26T21:22:50.084Z,97281.00
2017-12-26T21:25:23.992Z,97279.56
2017-12-26T21:27:59.729Z,97277.20
2017-12-26T21:30:32.236Z,97275.80
2017-12-26T21:33:04.261Z,97274.51
2017-12-26T21:35:37.699Z,97276.22
2017-12-26T21:38:11.957Z,97274.15
2017-12-26T21:40:46.976Z,97266.22
2017-12-26T21:43:16.980Z,97267.76
2017-12-26T21:45:48.675Z,97258.34
2017-12-26T21:48:21.116Z,97255.67
2017-12-26T21:50:52.960Z,97251.30
2017-12-26T21:53:22.934Z,97257.78
2017-12-26T21:55:54.376Z,97253.86
2017-12-26T21:58:24.497Z,97251.62
2017-12-26T22:00:56.250Z,97252.42
2017-12-26T22:03:28.319Z,97255.89
2017-12-26T22:05:58.606Z,97252.75
2017-12-26T22:08:29.206Z,97241.25
2017-12-26T22:11:03.813Z,97247.34
2017-12-26T22:13:37.537Z,97237.61
2017-12-26T22:16:14.706Z,97229.06
2017-12-26T22:18:46.942Z,97225.70
2017-12-26T22:21:20.757Z,97224.27
2017-12-26T22:23:52.438Z,97222.31
2017-12-26T22:26:24.855Z,97222.23
2017-12-26T22:28:55.456Z,97218.27
2017-12-26T22:31:30.283Z,97212.91
2017-12-26T22:34:04.928Z,97212.98
2017-12-26T22:36:38.109Z,97211.63
2017-12-26T22:39:11.429Z,97202.55
2017-12-26T22:41:47.707Z,97198.81
2017-12-26T22:44:32.252Z,97185.52
2017-12-26T22:47:08.982Z,97179.09
2017-12-26T22:55:52.052Z,97176.65
2017-12-26T23:01:20.917Z,97142.63
2017-12-26T23:04:07.344Z,97146.69
2017-12-26T23:12:14.370Z,97140.17
2017-12-26T23:14:55.715Z,97139.97
2017-12-26T23:18:27.824Z,97131.75
2017-12-26T23:21:06.374Z,97123.42
2017-12-26T23:23:58.501Z,97128.47
2017-12-26T23:28:52.085Z,97127.83
2017-12-26T23:40:31.613Z,97104.25
2017-12-26T23:45:08.395Z,97094.08
2017-12-26T23:49:53.880Z,97087.41
2017-12-26T23:54:33.444Z,97074.86
2017-12-26T23:59:18.844Z,97071.36
